Time;durP1;ratioP1;P1;durP2;ratioP2;P2;SDS_P1;SDS_P2;PMS_P1;PMS_P2;Temp;Humidity;BMP_temperature;BMP_pressure;BME280_temperature;BME280_humidity;BME280_pressure;Samples;Min_cycle;Max_cycle;Signal;HPM_P1;HPM_P2
2022/10/22 00:00:59;;;;;;;10.23;6.25;;;;;;;19.34;72.26;100968.78;4954126;28;20054;-89
2022/10/22 00:03:27;;;;;;;12.40;5.93;;;;;;;19.31;72.34;100958.34;4937465;29;20043;-89
2022/10/22 00:05:55;;;;;;;9.50;5.18;;;;;;;19.40;72.08;100965.84;4954173;28;20534;-90
2022/10/22 00:08:23;;;;;;;10.15;6.35;;;;;;;19.34;72.60;100960.47;4938033;28;20047;-89
2022/10/22 00:10:51;;;;;;;9.10;5.70;;;;;;;19.32;72.73;100964.72;4952676;28;20105;-89
2022/10/22 00:13:20;;;;;;;9.88;5.57;;;;;;;19.31;73.14;100966.66;4954112;28;20070;-87
2022/10/22 00:15:48;;;;;;;9.90;6.38;;;;;;;19.30;73.44;100956.72;4954320;28;20046;-89
2022/10/22 00:18:15;;;;;;;10.70;5.63;;;;;;;19.42;74.32;100952.44;4937687;29;20047;-87
2022/10/22 00:20:43;;;;;;;11.23;5.97;;;;;;;19.38;74.79;100957.00;4953684;28;20062;-89
2022/10/22 00:23:11;;;;;;;9.45;5.85;;;;;;;19.43;74.59;100960.44;4951714;28;20434;-89
2022/10/22 00:25:39;;;;;;;9.65;5.65;;;;;;;19.49;75.20;100951.94;4954933;28;20489;-89
2022/10/22 00:28:06;;;;;;;10.57;6.07;;;;;;;19.36;75.54;100948.22;4953565;28;20054;-89
2022/10/22 00:30:36;;;;;;;7.70;5.82;;;;;;;19.29;76.02;100921.78;4953553;28;20047;-88
2022/10/22 00:33:03;;;;;;;11.30;6.15;;;;;;;19.32;76.84;100926.66;4953748;28;20039;-88
2022/10/22 00:35:31;;;;;;;14.15;5.55;;;;;;;19.39;77.33;100925.34;4953449;28;20493;-89
2022/10/22 00:37:59;;;;;;;11.30;5.43;;;;;;;19.41;78.00;100912.75;4921789;28;20055;-89
2022/10/22 00:40:27;;;;;;;15.25;5.97;;;;;;;19.25;79.14;100915.25;4954517;28;20425;-89
2022/10/22 00:42:55;;;;;;;10.88;6.32;;;;;;;19.17;78.77;100899.47;4936732;28;20047;-89
2022/10/22 00:45:25;;;;;;;11.90;5.78;;;;;;;19.08;80.12;100888.41;4953909;28;20397;-88
2022/10/22 00:48:00;;;;;;;9.35;6.05;;;;;;;19.31;79.84;100883.41;4953590;28;20406;-89
2022/10/22 00:50:49;;;;;;;10.63;5.95;;;;;;;19.34;79.57;100879.16;4937407;29;20054;-88
2022/10/22 00:53:24;;;;;;;12.70;5.53;;;;;;;19.27;79.83;100882.47;4953566;28;20046;-89
2022/10/22 00:55:53;;;;;;;11.13;5.88;;;;;;;19.37;80.19;100886.84;4953438;29;20055;-88
2022/10/22 00:58:25;;;;;;;10.57;6.28;;;;;;;19.29;80.23;100899.59;4953174;28;20054;-88
2022/10/22 01:00:55;;;;;;;10.73;6.25;;;;;;;19.31;79.95;100908.38;4936110;29;20502;-89
2022/10/22 01:03:23;;;;;;;9.93;5.18;;;;;;;19.38;80.08;100902.34;4952186;28;20044;-88
2022/10/22 01:05:59;;;;;;;11.32;6.07;;;;;;;19.29;79.86;100919.00;4953399;28;20043;-88
2022/10/22 01:08:45;;;;;;;8.68;5.90;;;;;;;19.27;79.52;100907.44;4953024;28;20499;-89
2022/10/22 01:11:31;;;;;;;12.00;5.68;;;;;;;19.36;79.89;100899.09;4954071;28;20051;-88
2022/10/22 01:14:08;;;;;;;14.02;6.18;;;;;;;19.53;79.25;100900.16;4953104;28;20062;-89
2022/10/22 01:16:58;;;;;;;14.15;6.53;;;;;;;19.54;79.45;100885.94;4953903;28;20066;-88
2022/10/22 01:19:56;;;;;;;9.68;5.63;;;;;;;19.46;79.49;100884.03;4952826;28;20058;-88
2022/10/22 01:22:36;;;;;;;10.25;6.43;;;;;;;19.58;80.15;100878.59;4952046;28;20047;-88
2022/10/22 01:25:34;;;;;;;11.68;7.20;;;;;;;19.51;80.94;100872.75;4953701;28;20055;-89
2022/10/22 01:28:39;;;;;;;11.15;6.53;;;;;;;19.48;80.87;100865.06;4952768;28;20066;-89
2022/10/22 01:31:12;;;;;;;10.57;6.13;;;;;;;19.50;80.46;100864.75;4952093;28;20039;-89
2022/10/22 01:33:41;;;;;;;10.55;6.63;;;;;;;19.44;81.12;100847.44;4921981;28;20047;-89
2022/10/22 01:36:10;;;;;;;9.32;6.10;;;;;;;19.57;80.15;100853.94;4956160;28;20047;-89
2022/10/22 01:38:40;;;;;;;12.45;6.40;;;;;;;19.56;79.90;100872.53;4924988;29;20054;-89
2022/10/22 01:41:09;;;;;;;8.70;6.22;;;;;;;19.32;81.39;100871.16;4944852;28;20055;-90
2022/10/22 01:43:37;;;;;;;9.95;6.13;;;;;;;19.47;80.98;100861.47;4955589;28;20048;-89
2022/10/22 01:46:06;;;;;;;11.20;6.32;;;;;;;19.47;80.62;100860.69;4956263;28;20051;-88
2022/10/22 01:49:02;;;;;;;13.98;6.38;;;;;;;19.43;80.98;100854.16;4956417;28;20055;-89
2022/10/22 01:51:53;;;;;;;13.68;6.60;;;;;;;19.29;81.72;100843.28;4956302;28;20050;-89
2022/10/22 01:54:55;;;;;;;9.02;6.20;;;;;;;19.26;82.14;100844.75;4933876;29;20058;-89
2022/10/22 01:57:41;;;;;;;10.50;6.30;;;;;;;19.27;82.61;100832.53;4955470;28;20047;-90
2022/10/22 02:00:13;;;;;;;14.93;6.28;;;;;;;19.44;82.28;100839.13;4971533;28;20050;-89
2022/10/22 02:03:04;;;;;;;10.25;6.07;;;;;;;19.44;82.55;100844.69;4971629;28;20043;-90
2022/10/22 02:05:54;;;;;;;9.70;6.32;;;;;;;19.32;83.01;100826.78;4944226;28;20448;-89
2022/10/22 02:08:29;;;;;;;10.95;6.30;;;;;;;19.19;83.47;100819.50;4940226;29;20057;-89
2022/10/22 02:10:59;;;;;;;10.57;5.78;;;;;;;19.32;83.28;100825.97;4955811;28;20501;-88
2022/10/22 02:13:35;;;;;;;8.88;5.97;;;;;;;19.47;83.15;100830.16;4955149;29;20517;-89
2022/10/22 02:16:07;;;;;;;9.05;5.80;;;;;;;19.28;83.90;100847.22;4955420;28;20074;-88
2022/10/22 02:18:39;;;;;;;9.70;5.85;;;;;;;19.18;84.33;100851.16;4955647;28;20058;-89
2022/10/22 02:21:08;;;;;;;8.52;5.65;;;;;;;19.32;84.37;100845.41;4970370;28;20039;-89
2022/10/22 02:23:36;;;;;;;13.48;6.53;;;;;;;19.03;85.09;100820.06;4973171;28;20038;-89
2022/10/22 02:26:48;;;;;;;10.07;5.72;;;;;;;19.17;84.73;100816.25;4975138;28;20061;-88
2022/10/22 02:29:29;;;;;;;16.30;6.90;;;;;;;19.15;85.65;100815.75;4904022;29;20052;-89
2022/10/22 02:31:59;;;;;;;11.55;6.70;;;;;;;19.19;86.55;100816.72;4902430;29;20067;-88
2022/10/22 02:34:30;;;;;;;15.18;7.07;;;;;;;19.23;87.68;100812.16;4931909;28;20593;-88
2022/10/22 02:37:01;;;;;;;14.30;7.40;;;;;;;19.25;87.11;100803.50;4973164;28;20073;-88
2022/10/22 02:39:30;;;;;;;11.20;7.38;;;;;;;19.16;87.34;100801.56;4971553;28;20066;-88
2022/10/22 02:42:00;;;;;;;10.18;6.53;;;;;;;19.26;86.82;100785.69;4966970;28;20050;-89
2022/10/22 02:44:28;;;;;;;12.15;7.00;;;;;;;19.20;87.45;100779.50;4937045;28;20441;-89
2022/10/22 02:46:56;;;;;;;10.73;7.05;;;;;;;19.21;87.12;100781.13;4922698;29;20058;-90
2022/10/22 02:49:24;;;;;;;11.38;7.03;;;;;;;19.27;86.29;100765.94;4939025;28;20039;-89
2022/10/22 02:51:52;;;;;;;12.25;7.10;;;;;;;19.18;88.73;100763.22;4923777;29;20151;-90
2022/10/22 02:54:20;;;;;;;12.93;7.80;;;;;;;19.16;88.55;100764.72;4923334;29;20058;-91
2022/10/22 02:56:48;;;;;;;12.85;6.85;;;;;;;19.00;89.46;100776.31;4938026;29;20054;-90
2022/10/22 02:59:15;;;;;;;11.77;6.72;;;;;;;18.73;91.79;100786.69;4928347;29;20048;-89
2022/10/22 03:01:43;;;;;;;9.48;6.13;;;;;;;18.75;91.81;100786.34;4952648;28;20059;-88
2022/10/22 03:04:11;;;;;;;11.00;6.68;;;;;;;18.71;91.56;100769.56;4970238;28;20047;-89
2022/10/22 03:06:42;;;;;;;10.35;5.97;;;;;;;18.81;90.86;100768.41;4956029;28;20062;-88
2022/10/22 03:09:10;;;;;;;9.68;6.07;;;;;;;18.87;90.09;100774.59;4955013;28;20494;-88
2022/10/22 03:11:38;;;;;;;11.65;6.45;;;;;;;18.99;90.16;100787.75;4954055;28;20051;-88
2022/10/22 03:14:06;;;;;;;9.73;6.63;;;;;;;18.94;90.24;100774.88;4955977;28;20039;-89
2022/10/22 03:16:33;;;;;;;11.13;6.70;;;;;;;18.98;90.08;100767.53;4954791;28;20063;-88
2022/10/22 03:19:02;;;;;;;11.20;7.03;;;;;;;19.13;90.13;100760.63;4954866;28;20043;-88
2022/10/22 03:21:44;;;;;;;9.25;6.88;;;;;;;19.13;90.56;100765.34;4952914;28;20055;-88
2022/10/22 03:24:16;;;;;;;10.43;6.30;;;;;;;19.12;90.70;100760.97;4952958;28;20505;-89
2022/10/22 03:26:48;;;;;;;13.00;7.45;;;;;;;19.12;90.85;100747.09;4938999;29;20063;-89
2022/10/22 03:29:16;;;;;;;11.00;6.47;;;;;;;19.04;90.71;100734.91;4955830;28;20063;-89
2022/10/22 03:31:44;;;;;;;14.05;7.22;;;;;;;19.02;90.95;100737.16;4938218;29;20078;-87
2022/10/22 03:34:12;;;;;;;11.52;6.72;;;;;;;19.02;90.75;100731.63;4954002;28;20051;-87
2022/10/22 03:36:40;;;;;;;10.55;6.53;;;;;;;19.07;90.54;100725.91;4953986;28;20043;-89
2022/10/22 03:39:12;;;;;;;11.48;7.00;;;;;;;19.00;91.18;100720.84;4957647;28;20051;-89
2022/10/22 03:41:40;;;;;;;9.55;6.57;;;;;;;19.14;89.66;100739.25;4956521;28;20105;-88
2022/10/22 03:44:08;;;;;;;14.07;6.80;;;;;;;19.28;89.51;100747.31;4955610;28;20055;-88
2022/10/22 03:46:36;;;;;;;10.23;6.75;;;;;;;19.44;88.27;100751.16;4954106;28;20079;-85
2022/10/22 03:49:04;;;;;;;13.00;7.20;;;;;;;19.46;88.55;100742.50;4954299;28;20056;-86
2022/10/22 03:51:32;;;;;;;11.93;7.38;;;;;;;19.67;87.69;100736.94;4953745;28;20047;-86
2022/10/22 03:53:59;;;;;;;12.60;7.43;;;;;;;19.40;88.81;100744.63;4953920;28;20070;-86
2022/10/22 03:56:27;;;;;;;11.10;6.95;;;;;;;19.30;89.39;100745.03;4938192;28;20058;-82
2022/10/22 03:58:57;;;;;;;12.60;7.13;;;;;;;19.30;88.43;100743.06;4953950;28;20046;-86
2022/10/22 04:01:26;;;;;;;11.77;7.05;;;;;;;19.44;88.52;100755.88;4954305;28;20074;-86
2022/10/22 04:03:54;;;;;;;11.57;6.57;;;;;;;19.25;89.11;100748.81;4934614;29;20048;-86
2022/10/22 04:06:22;;;;;;;15.57;7.20;;;;;;;19.15;89.53;100750.00;4946985;28;20059;-85
2022/10/22 04:08:50;;;;;;;12.43;6.32;;;;;;;19.16;89.37;100756.38;4953986;28;20043;-86
2022/10/22 04:11:18;;;;;;;12.45;7.05;;;;;;;19.18;90.16;100754.91;4953952;28;20047;-88
2022/10/22 04:13:46;;;;;;;12.10;6.50;;;;;;;19.02;90.22;100751.03;4953437;28;20054;-82
2022/10/22 04:16:16;;;;;;;12.50;6.85;;;;;;;19.02;90.66;100751.81;4953671;28;20200;-81
2022/10/22 04:18:46;;;;;;;13.10;6.60;;;;;;;19.00;89.78;100751.38;4940481;28;20043;-87
2022/10/22 04:21:16;;;;;;;15.05;7.93;;;;;;;19.09;91.12;100750.53;4953879;28;20502;-85
2022/10/22 04:23:49;;;;;;;12.57;7.15;;;;;;;19.13;91.82;100741.22;4954551;28;20043;-85
2022/10/22 04:26:18;;;;;;;13.20;7.70;;;;;;;18.97;92.02;100738.16;4954044;28;20074;-84
2022/10/22 04:28:48;;;;;;;12.25;7.93;;;;;;;18.86;93.15;100728.59;4954456;28;20039;-85
2022/10/22 04:31:21;;;;;;;12.35;7.93;;;;;;;18.98;92.99;100742.56;4953888;28;20043;-87
2022/10/22 04:33:53;;;;;;;14.20;8.45;;;;;;;19.09;92.40;100744.97;4952798;29;20409;-86
2022/10/22 04:36:22;;;;;;;10.80;7.65;;;;;;;19.05;92.99;100748.44;4953331;28;20490;-86
2022/10/22 04:38:55;;;;;;;14.15;7.55;;;;;;;19.00;93.04;100745.81;4952776;28;20046;-88
2022/10/22 04:41:26;;;;;;;12.98;7.35;;;;;;;18.98;93.15;100738.97;4951719;28;20040;-88
2022/10/22 04:43:55;;;;;;;15.93;8.50;;;;;;;19.00;92.87;100729.19;4954429;28;20426;-89
2022/10/22 04:46:25;;;;;;;14.35;7.22;;;;;;;19.13;91.88;100723.75;4921275;29;20398;-89
2022/10/22 04:48:53;;;;;;;15.35;7.45;;;;;;;19.05;92.55;100717.94;4952470;28;20035;-90
2022/10/22 04:51:23;;;;;;;13.30;7.43;;;;;;;18.89;93.00;100717.66;4953100;28;20044;-88
2022/10/22 04:53:51;;;;;;;11.32;7.70;;;;;;;19.19;91.54;100705.78;4952952;28;20046;-81
2022/10/22 04:56:23;;;;;;;13.05;7.47;;;;;;;19.18;90.59;100704.97;4954413;28;20047;-80
2022/10/22 04:59:03;;;;;;;14.73;7.35;;;;;;;19.29;90.04;100716.47;4953517;28;20066;-81
2022/10/22 05:01:33;;;;;;;13.88;7.55;;;;;;;19.28;90.06;100717.63;4953765;28;20039;-80
2022/10/22 05:04:08;;;;;;;15.25;7.32;;;;;;;19.24;90.51;100713.91;4954109;28;20043;-80
2022/10/22 05:06:36;;;;;;;13.40;7.70;;;;;;;19.24;90.58;100711.13;4952719;28;20082;-81
2022/10/22 05:09:06;;;;;;;12.23;7.88;;;;;;;19.23;89.83;100711.44;4952710;28;20047;-79
2022/10/22 05:11:37;;;;;;;12.45;7.10;;;;;;;19.33;89.59;100703.56;4953799;28;20058;-80
2022/10/22 05:14:06;;;;;;;12.52;7.05;;;;;;;19.27;89.31;100713.25;4953528;28;20055;-78
2022/10/22 05:16:36;;;;;;;15.77;7.55;;;;;;;19.41;89.12;100701.06;4953163;28;20062;-79
2022/10/22 05:19:06;;;;;;;11.65;6.47;;;;;;;19.37;88.04;100705.66;4953899;28;20051;-77
2022/10/22 05:21:36;;;;;;;11.32;6.63;;;;;;;19.59;87.15;100716.44;4954032;28;20418;-79
2022/10/22 05:24:05;;;;;;;11.93;7.03;;;;;;;19.59;86.79;100705.31;4952814;28;20062;-78
2022/10/22 05:26:33;;;;;;;14.23;7.97;;;;;;;19.65;87.96;100719.00;4961343;28;20051;-79
2022/10/22 05:29:01;;;;;;;11.95;7.10;;;;;;;19.64;86.93;100715.41;4959644;28;20064;-79
2022/10/22 05:31:29;;;;;;;11.13;7.22;;;;;;;19.79;86.53;100722.31;4950749;29;20047;-78
2022/10/22 05:33:57;;;;;;;13.98;7.47;;;;;;;19.64;87.22;100714.63;4955980;28;20226;-79
2022/10/22 05:36:27;;;;;;;15.38;8.15;;;;;;;19.40;87.72;100722.44;4963457;28;20050;-80
2022/10/22 05:38:56;;;;;;;14.75;7.55;;;;;;;19.40;88.73;100705.78;4952517;28;20051;-79
2022/10/22 05:41:26;;;;;;;11.73;7.80;;;;;;;19.50;87.66;100706.56;4952494;28;20398;-79
2022/10/22 05:43:56;;;;;;;14.20;7.20;;;;;;;19.52;87.02;100710.63;4953511;28;20517;-79
2022/10/22 05:46:26;;;;;;;14.52;7.40;;;;;;;19.41;88.06;100703.84;4953721;28;20051;-79
2022/10/22 05:49:01;;;;;;;10.05;7.15;;;;;;;19.30;88.59;100695.91;4952457;28;20128;-79
2022/10/22 05:51:31;;;;;;;13.75;8.10;;;;;;;19.26;88.68;100702.47;4952672;28;20054;-78
2022/10/22 05:54:01;;;;;;;15.30;7.85;;;;;;;19.41;87.78;100695.50;4953665;28;20405;-78
2022/10/22 05:56:33;;;;;;;14.45;6.75;;;;;;;19.54;86.83;100696.38;4953244;28;20062;-79
2022/10/22 05:59:01;;;;;;;15.13;8.25;;;;;;;19.50;86.76;100709.31;4953006;28;20375;-79
2022/10/22 06:01:31;;;;;;;14.80;7.80;;;;;;;19.61;86.97;100730.78;4952662;28;20051;-80
2022/10/22 06:04:01;;;;;;;15.73;7.15;;;;;;;19.65;86.37;100725.34;4951686;28;20055;-80
2022/10/22 06:06:31;;;;;;;10.68;6.57;;;;;;;19.70;84.93;100713.25;4951373;28;20047;-78
2022/10/22 06:09:03;;;;;;;10.65;7.53;;;;;;;19.84;84.86;100726.88;4950528;28;20075;-77
2022/10/22 06:11:32;;;;;;;11.18;7.20;;;;;;;19.94;84.19;100734.75;4946482;28;20049;-77
2022/10/22 06:14:03;;;;;;;11.93;6.78;;;;;;;19.72;85.31;100724.81;4953542;28;20054;-78
2022/10/22 06:16:31;;;;;;;11.55;7.32;;;;;;;19.73;84.80;100740.31;4950455;29;20054;-80
2022/10/22 06:19:03;;;;;;;11.77;6.63;;;;;;;19.69;84.58;100744.91;4958245;28;20048;-79
2022/10/22 06:21:31;;;;;;;11.70;6.65;;;;;;;19.84;84.40;100746.31;4963816;28;20076;-80
2022/10/22 06:24:00;;;;;;;13.40;7.07;;;;;;;19.83;84.70;100739.94;4974502;28;20043;-80
2022/10/22 06:26:29;;;;;;;12.25;7.03;;;;;;;19.92;84.50;100745.41;4974225;28;20058;-80
2022/10/22 06:28:57;;;;;;;11.50;6.25;;;;;;;19.72;85.35;100744.25;4960803;28;20062;-80
2022/10/22 06:31:26;;;;;;;12.15;6.47;;;;;;;19.87;84.66;100746.44;4975606;28;20054;-80
2022/10/22 06:33:55;;;;;;;13.23;6.75;;;;;;;19.93;83.73;100757.31;4973593;28;20062;-79
2022/10/22 06:36:23;;;;;;;13.30;6.93;;;;;;;20.18;83.02;100771.34;4975529;28;20058;-79
2022/10/22 06:38:53;;;;;;;10.55;6.80;;;;;;;20.25;82.95;100780.75;4969245;28;20043;-79
2022/10/22 06:41:22;;;;;;;7.97;6.10;;;;;;;20.25;82.65;100777.16;4955662;28;20496;-79
2022/10/22 06:43:56;;;;;;;;;;;;;;;20.06;82.30;100780.44;4954088;28;20043;-79
2022/10/22 06:46:25;;;;;;;12.32;5.75;;;;;;;20.06;83.25;100780.44;4955017;28;19922;-79
2022/10/22 06:48:58;;;;;;;10.68;6.28;;;;;;;20.20;82.95;100780.16;4956210;28;20051;-79
2022/10/22 06:51:26;;;;;;;16.98;6.40;;;;;;;20.22;83.04;100772.28;4955659;28;20051;-79
2022/10/22 06:53:55;;;;;;;11.02;6.57;;;;;;;20.22;82.60;100767.53;4954801;28;20050;-79
2022/10/22 06:56:25;;;;;;;9.18;5.18;;;;;;;20.30;82.79;100778.91;4955994;28;20042;-79
2022/10/22 06:58:55;;;;;;;10.85;5.82;;;;;;;20.15;83.03;100772.84;4956040;28;20043;-79
2022/10/22 07:01:26;;;;;;;9.18;5.47;;;;;;;20.21;82.11;100767.88;4955741;28;20047;-79
2022/10/22 07:03:54;;;;;;;8.95;4.80;;;;;;;20.34;81.79;100774.31;4955905;28;20712;-79
2022/10/22 07:06:23;;;;;;;12.40;5.82;;;;;;;20.45;82.46;100780.22;4955631;28;20047;-76
2022/10/22 07:08:53;;;;;;;10.50;5.75;;;;;;;20.48;81.95;100785.13;4951809;28;20051;-79
2022/10/22 07:11:31;;;;;;;11.15;5.75;;;;;;;20.58;81.74;100789.44;4941054;29;20501;-79
2022/10/22 07:14:00;;;;;;;10.55;5.72;;;;;;;20.60;81.83;100793.50;4941675;29;20060;-80
2022/10/22 07:16:27;;;;;;;11.02;5.32;;;;;;;20.72;80.50;100800.25;4954355;29;20046;-80
2022/10/22 07:19:00;;;;;;;9.98;5.30;;;;;;;20.83;79.95;100795.88;4954396;29;20073;-79
2022/10/22 07:21:28;;;;;;;10.15;5.75;;;;;;;20.94;78.51;100797.06;4954182;29;20043;-80
2022/10/22 07:23:57;;;;;;;14.02;5.40;;;;;;;20.95;80.09;100797.88;4954898;29;20048;-79
2022/10/22 07:26:29;;;;;;;8.57;5.85;;;;;;;20.97;79.36;100801.09;4960229;28;20054;-80
2022/10/22 07:28:59;;;;;;;12.10;5.70;;;;;;;21.07;78.78;100799.88;4962997;28;20047;-79
2022/10/22 07:31:27;;;;;;;11.32;4.97;;;;;;;21.08;79.24;100796.72;4966403;28;20046;-83
2022/10/22 07:33:56;;;;;;;6.68;4.80;;;;;;;21.27;78.00;100797.31;4955739;28;20035;-84
2022/10/22 07:36:24;;;;;;;10.70;4.50;;;;;;;21.31;76.98;100804.59;4955026;29;20047;-85
2022/10/22 07:38:55;;;;;;;8.38;5.15;;;;;;;21.35;78.46;100811.09;4953524;29;20046;-85
2022/10/22 07:41:23;;;;;;;12.73;5.63;;;;;;;21.33;79.17;100819.00;4953908;29;20512;-83
2022/10/22 07:43:51;;;;;;;9.15;5.13;;;;;;;21.38;77.76;100825.47;4954308;28;20043;-85
2022/10/22 07:46:19;;;;;;;8.25;5.18;;;;;;;21.40;78.65;100829.53;4961465;28;20039;-84
2022/10/22 07:48:47;;;;;;;7.25;4.80;;;;;;;21.49;77.80;100829.41;4958221;28;20058;-84
2022/10/22 07:51:15;;;;;;;10.35;5.80;;;;;;;21.54;78.54;100831.97;4963994;28;20557;-84
2022/10/22 07:53:43;;;;;;;10.88;5.15;;;;;;;21.60;76.46;100826.97;4951940;28;20054;-84
2022/10/22 07:56:12;;;;;;;10.25;5.07;;;;;;;21.46;77.65;100825.34;4950923;28;20055;-84
2022/10/22 07:58:40;;;;;;;8.32;4.95;;;;;;;21.65;77.04;100826.72;4952066;29;20050;-84
2022/10/22 08:01:08;;;;;;;9.20;5.63;;;;;;;21.79;75.86;100817.25;4953904;29;20043;-84
2022/10/22 08:03:36;;;;;;;8.95;5.32;;;;;;;21.99;76.58;100827.41;4952479;29;20050;-84
2022/10/22 08:06:04;;;;;;;7.85;5.13;;;;;;;22.01;74.33;100818.69;4953480;29;20052;-84
2022/10/22 08:08:33;;;;;;;9.10;5.45;;;;;;;22.18;75.35;100822.38;4953162;29;20054;-84
2022/10/22 08:11:01;;;;;;;7.75;5.32;;;;;;;22.24;73.50;100835.66;4952256;29;20051;-84
2022/10/22 08:13:30;;;;;;;8.50;4.97;;;;;;;22.40;73.00;100829.34;4950422;28;20051;-84
2022/10/22 08:15:59;;;;;;;13.15;5.28;;;;;;;22.43;71.84;100834.19;4961176;28;20047;-84
2022/10/22 08:18:28;;;;;;;12.00;5.20;;;;;;;22.39;72.26;100831.31;4958203;28;20070;-83
2022/10/22 08:20:56;;;;;;;12.48;5.80;;;;;;;22.43;72.39;100825.84;4957293;28;20039;-84
2022/10/22 08:23:24;;;;;;;9.30;5.30;;;;;;;22.56;70.99;100832.22;4962541;28;20050;-86
2022/10/22 08:25:56;;;;;;;10.45;4.85;;;;;;;22.39;72.62;100834.09;4960463;28;20043;-85
2022/10/22 08:28:24;;;;;;;10.40;5.75;;;;;;;22.46;72.47;100833.50;4960555;28;20043;-85
2022/10/22 08:30:52;;;;;;;14.70;5.80;;;;;;;22.49;72.16;100835.56;4949724;28;20043;-86
2022/10/22 08:33:20;;;;;;;8.63;5.40;;;;;;;22.45;72.12;100831.88;4963162;28;20043;-84
2022/10/22 08:35:50;;;;;;;8.77;4.32;;;;;;;22.55;71.07;100830.59;4953124;28;20047;-85
2022/10/22 08:38:18;;;;;;;10.23;4.78;;;;;;;22.67;70.20;100835.28;4951896;28;20038;-84
2022/10/22 08:40:51;;;;;;;9.07;5.45;;;;;;;22.63;71.98;100837.19;4957743;28;20043;-84
2022/10/22 08:43:41;;;;;;;10.80;5.20;;;;;;;22.55;70.92;100844.53;4945990;28;20050;-84
2022/10/22 08:46:25;;;;;;;10.68;5.07;;;;;;;22.57;70.37;100841.41;4954254;28;20305;-80
2022/10/22 08:48:56;;;;;;;11.90;4.65;;;;;;;22.48;70.93;100847.91;4954160;28;20054;-80
2022/10/22 08:51:34;;;;;;;8.13;4.70;;;;;;;22.63;70.93;100853.91;4951193;28;20055;-80
2022/10/22 08:54:29;;;;;;;7.25;3.85;;;;;;;22.60;70.75;100849.03;4952886;28;20595;-80
2022/10/22 08:57:15;;;;;;;13.63;5.22;;;;;;;22.58;70.75;100851.38;4943662;29;20051;-80
2022/10/22 09:00:03;;;;;;;6.72;4.47;;;;;;;22.47;72.34;100856.59;4956545;28;20047;-80
2022/10/22 09:03:02;;;;;;;14.55;4.82;;;;;;;22.45;70.94;100865.34;4949382;29;20418;-80
2022/10/22 09:05:36;;;;;;;7.25;4.13;;;;;;;22.45;71.44;100870.94;4954058;28;20058;-81
2022/10/22 09:08:07;;;;;;;;;;;;;;;22.46;71.53;100861.38;4952710;28;20054;-80
2022/10/22 09:10:39;;;;;;;7.93;4.53;;;;;;;22.46;71.86;100861.38;4952317;29;19926;-80
2022/10/22 09:13:13;;;;;;;7.82;5.05;;;;;;;22.34;71.97;100853.88;4949854;29;20047;-80
2022/10/22 09:15:40;;;;;;;13.20;5.93;;;;;;;22.40;72.19;100857.22;4948890;29;20050;-80
2022/10/22 09:18:27;;;;;;;11.93;5.72;;;;;;;22.39;72.05;100856.41;4949073;29;20039;-80
2022/10/22 09:21:10;;;;;;;9.30;5.50;;;;;;;22.42;71.54;100864.06;4949447;29;20055;-80
2022/10/22 09:24:02;;;;;;;12.27;5.15;;;;;;;22.41;72.77;100875.56;4950813;29;20050;-80
2022/10/22 09:26:34;;;;;;;8.55;5.00;;;;;;;22.40;71.83;100868.38;4952214;29;20783;-80
2022/10/22 09:29:03;;;;;;;9.07;5.00;;;;;;;22.44;72.03;100866.53;4949941;29;20517;-80
2022/10/22 09:31:34;;;;;;;8.52;5.40;;;;;;;22.49;72.83;100877.38;4950535;29;20050;-81
2022/10/22 09:34:06;;;;;;;12.15;4.82;;;;;;;22.54;71.67;100846.50;4951273;29;20059;-80
2022/10/22 09:36:35;;;;;;;6.93;4.95;;;;;;;22.74;70.92;100849.44;4951441;29;20058;-81
2022/10/22 09:39:03;;;;;;;9.07;5.13;;;;;;;22.85;69.68;100863.66;4950598;29;20050;-80
2022/10/22 09:41:32;;;;;;;9.48;5.53;;;;;;;22.86;70.31;100873.66;4948175;29;20054;-80
2022/10/22 09:44:00;;;;;;;7.90;5.28;;;;;;;22.93;69.28;100873.84;4950234;28;20058;-81
2022/10/22 09:46:44;;;;;;;7.68;4.88;;;;;;;23.02;70.61;100884.03;4949842;29;20044;-80
2022/10/22 09:49:16;;;;;;;12.57;5.13;;;;;;;22.88;69.47;100881.66;4948964;29;20119;-84
2022/10/22 09:51:52;;;;;;;6.93;5.20;;;;;;;22.93;69.10;100873.03;4950244;29;20477;-84
2022/10/22 09:54:30;;;;;;;9.45;5.05;;;;;;;22.99;69.09;100879.16;4951622;28;20492;-84
2022/10/22 09:57:12;;;;;;;8.45;5.40;;;;;;;22.87;69.93;100891.22;4949783;29;20067;-84
2022/10/22 09:59:42;;;;;;;7.57;5.18;;;;;;;22.77;69.57;100871.03;4954384;29;20401;-84
2022/10/22 10:02:13;;;;;;;9.82;4.80;;;;;;;22.76;69.68;100871.38;4956133;29;20046;-83
2022/10/22 10:05:02;;;;;;;12.55;5.78;;;;;;;22.98;69.26;100880.34;4956145;29;20489;-84
2022/10/22 10:07:32;;;;;;;9.52;5.07;;;;;;;22.99;68.52;100885.56;4952352;29;20054;-84
2022/10/22 10:09:59;;;;;;;10.60;5.97;;;;;;;22.96;69.03;100883.47;4954334;29;20051;-84
2022/10/22 10:12:33;;;;;;;7.72;5.45;;;;;;;23.08;68.67;100890.97;4954990;29;20055;-84
2022/10/22 10:15:27;;;;;;;9.93;5.95;;;;;;;23.22;68.97;100890.53;4955814;29;20069;-85
2022/10/22 10:17:55;;;;;;;11.18;5.88;;;;;;;23.34;67.76;100887.69;4952785;29;20405;-85
2022/10/22 10:20:23;;;;;;;5.82;4.72;;;;;;;23.10;67.30;100888.63;4955606;29;20050;-84
2022/10/22 10:23:16;;;;;;;8.23;5.70;;;;;;;23.21;67.65;100894.47;4954265;29;20051;-85
2022/10/22 10:25:52;;;;;;;7.20;5.05;;;;;;;23.14;67.71;100906.28;4964780;28;20040;-83
2022/10/22 10:42:14;;;;;;;6.75;4.60;;;;;;;22.92;67.78;100896.53;5140504;27;20431;-88
2022/10/22 10:45:06;;;;;;;9.90;5.07;;;;;;;22.84;68.41;100914.22;5072835;28;20053;-88
2022/10/22 10:48:05;;;;;;;7.43;5.28;;;;;;;23.03;68.06;100899.59;5066046;28;20045;-88
2022/10/22 10:50:51;;;;;;;6.47;4.63;;;;;;;23.12;67.26;100907.81;5079801;28;20051;-89
2022/10/22 10:53:53;;;;;;;9.95;4.70;;;;;;;23.09;69.75;100907.38;5069645;28;20041;-88
2022/10/22 10:56:26;;;;;;;8.38;5.15;;;;;;;23.08;69.46;100902.94;5062403;28;20064;-87
2022/10/22 10:59:33;;;;;;;14.25;5.90;;;;;;;22.94;67.84;100902.56;5068316;28;20048;-88
2022/10/22 11:02:19;;;;;;;9.27;4.68;;;;;;;23.13;68.28;100907.47;5058668;28;20068;-87
2022/10/22 11:05:14;;;;;;;9.00;5.20;;;;;;;23.22;67.42;100902.50;5055788;28;20044;-88
2022/10/22 11:07:48;;;;;;;11.00;5.10;;;;;;;23.37;66.54;100914.09;5068624;28;20071;-90
2022/10/22 11:10:44;;;;;;;14.32;5.68;;;;;;;23.36;66.54;100918.03;5068052;28;20669;-88
2022/10/22 11:13:35;;;;;;;9.20;5.25;;;;;;;23.34;67.02;100909.19;5068723;28;20044;-89
2022/10/22 11:16:19;;;;;;;15.32;5.07;;;;;;;23.24;66.45;100910.53;5065563;28;20039;-88
2022/10/22 11:18:52;;;;;;;7.20;5.10;;;;;;;23.39;66.87;100913.69;5066034;28;20411;-87
2022/10/22 11:21:41;;;;;;;7.28;5.10;;;;;;;23.40;66.40;100913.34;5063531;28;20056;-89
2022/10/22 11:24:26;;;;;;;8.82;5.05;;;;;;;23.34;67.05;100910.03;5065507;28;20059;-89
2022/10/22 11:27:26;;;;;;;10.38;5.20;;;;;;;23.18;68.00;100906.38;5065028;28;20054;-91
2022/10/22 11:30:11;;;;;;;12.40;5.20;;;;;;;23.12;68.36;100908.59;5065848;28;20041;-87
2022/10/22 11:32:43;;;;;;;7.47;4.90;;;;;;;23.17;68.46;100910.34;5065702;28;20041;-89
2022/10/22 11:35:16;;;;;;;9.48;5.22;;;;;;;23.19;68.60;100913.56;5064477;28;20044;-88
2022/10/22 11:37:51;;;;;;;10.93;5.53;;;;;;;23.20;67.97;100910.44;5063155;28;20044;-88
2022/10/22 11:40:30;;;;;;;10.98;5.30;;;;;;;23.32;68.15;100912.34;5065225;28;20048;-88
2022/10/22 11:43:09;;;;;;;11.55;5.82;;;;;;;23.37;68.23;100916.06;5052777;28;20056;-88
2022/10/22 11:45:41;;;;;;;12.75;5.50;;;;;;;23.42;68.46;100905.41;5053461;28;20045;-87
2022/10/22 11:48:09;;;;;;;7.28;5.28;;;;;;;23.72;68.20;100915.31;5053348;28;20044;-87
2022/10/22 11:50:43;;;;;;;12.70;5.63;;;;;;;23.57;68.90;100919.75;5053471;28;20487;-88
2022/10/22 11:53:11;;;;;;;7.72;5.07;;;;;;;23.55;70.12;100922.88;5063797;28;20028;-85
2022/10/22 11:55:46;;;;;;;8.80;4.45;;;;;;;23.56;69.91;100915.34;5059720;28;20056;-90
2022/10/22 11:58:38;;;;;;;12.68;5.43;;;;;;;23.35;70.91;100914.44;5064904;28;20048;-91
2022/10/22 12:01:08;;;;;;;8.23;4.85;;;;;;;23.33;70.64;100927.94;5016804;28;20052;-87